createdAt,value
2019-03-27T00:02:19.472Z,5.47
2019-03-27T00:04:52.144Z,5.64
2019-03-27T00:07:24.728Z,5.37
2019-03-27T00:09:57.408Z,5.69
2019-03-27T00:12:29.977Z,5.15
2019-03-27T00:15:12.831Z,5.69
2019-03-27T00:17:36.780Z,5.27
2019-03-27T00:20:12.622Z,5.57
2019-03-27T00:22:46.846Z,5.62
2019-03-27T00:25:19.430Z,5.26
2019-03-27T00:27:51.730Z,6.52
2019-03-27T00:30:24.269Z,9.48
2019-03-27T00:32:56.468Z,8.80
2019-03-27T00:35:29.013Z,7.22
2019-03-27T00:38:02.409Z,6.06
2019-03-27T00:40:34.985Z,5.15
2019-03-27T00:43:07.973Z,5.72
2019-03-27T00:45:40.594Z,5.16
2019-03-27T00:48:13.628Z,5.55
2019-03-27T00:50:46.212Z,5.62
2019-03-27T00:53:18.781Z,5.26
2019-03-27T00:55:51.359Z,5.71
2019-03-27T00:58:23.554Z,5.26
2019-03-27T01:01:06.243Z,5.43
2019-03-27T01:03:38.932Z,5.74
2019-03-27T01:06:13.238Z,5.13
2019-03-27T01:08:45.815Z,5.61
2019-03-27T01:11:18.390Z,5.52
2019-03-27T01:13:50.980Z,5.28
2019-03-27T01:16:23.551Z,5.78
2019-03-27T01:18:56.133Z,5.13
2019-03-27T01:21:28.698Z,5.50
2019-03-27T01:24:01.284Z,5.67
2019-03-27T01:26:33.858Z,5.22
2019-03-27T01:29:06.425Z,5.68
2019-03-27T01:31:40.144Z,5.28
2019-03-27T01:34:12.714Z,5.44
2019-03-27T01:36:45.372Z,5.71
2019-03-27T01:39:17.957Z,5.10
2019-03-27T01:41:50.548Z,5.64
2019-03-27T01:44:23.427Z,5.38
2019-03-27T01:46:56.005Z,5.34
2019-03-27T01:49:28.568Z,5.75
2019-03-27T01:52:00.699Z,5.15
2019-03-27T01:54:32.903Z,5.57
2019-03-27T01:57:05.392Z,5.54
2019-03-27T01:59:37.975Z,5.34
2019-03-27T02:02:10.542Z,5.78
2019-03-27T02:04:43.133Z,5.13
2019-03-27T02:07:15.806Z,5.64
2019-03-27T02:09:48.380Z,5.41
2019-03-27T02:12:20.942Z,5.34
2019-03-27T02:14:53.535Z,5.77
2019-03-27T02:17:26.114Z,5.10
2019-03-27T02:19:58.311Z,5.67
2019-03-27T02:22:30.847Z,5.36
2019-03-27T02:25:03.050Z,5.41
2019-03-27T02:27:35.604Z,5.72
2019-03-27T02:30:10.270Z,5.15
2019-03-27T02:32:42.421Z,5.54
2019-03-27T02:35:15.069Z,5.58
2019-03-27T02:37:47.651Z,5.34
2019-03-27T02:40:19.858Z,6.09
2019-03-27T02:42:52.439Z,9.02
2019-03-27T02:45:25.067Z,8.39
2019-03-27T02:47:57.651Z,6.87
2019-03-27T02:50:30.535Z,5.71
2019-03-27T02:53:04.638Z,5.50
2019-03-27T02:55:37.215Z,5.44
2019-03-27T02:58:09.857Z,5.71
2019-03-27T03:00:42.467Z,5.28
2019-03-27T03:03:15.045Z,5.72
2019-03-27T03:06:00.242Z,5.16
2019-03-27T03:08:36.805Z,5.38
2019-03-27T03:11:09.013Z,5.72
2019-03-27T03:13:41.543Z,5.12
2019-03-27T03:16:15.336Z,5.55
2019-03-27T03:18:47.925Z,5.62
2019-03-27T03:21:20.567Z,5.31
2019-03-27T03:23:52.688Z,5.71
2019-03-27T03:26:25.343Z,5.13
2019-03-27T03:28:57.914Z,5.52
2019-03-27T03:31:30.634Z,5.62
2019-03-27T03:34:03.360Z,5.18
2019-03-27T03:36:35.959Z,5.67
2019-03-27T03:39:08.210Z,5.40
2019-03-27T03:41:40.802Z,5.43
2019-03-27T03:44:13.385Z,5.71
2019-03-27T03:46:58.945Z,5.16
2019-03-27T03:49:20.170Z,5.62
2019-03-27T03:51:55.200Z,5.41
2019-03-27T03:54:27.836Z,5.36
2019-03-27T03:57:01.276Z,6.18
2019-03-27T03:59:34.057Z,9.09
2019-03-27T04:02:06.844Z,8.29
2019-03-27T04:04:39.416Z,6.78
2019-03-27T04:07:11.998Z,5.62
2019-03-27T04:09:44.568Z,5.54
2019-03-27T04:12:17.157Z,5.33
2019-03-27T04:14:49.761Z,5.75
2019-03-27T04:17:22.311Z,5.20
2019-03-27T04:19:54.874Z,5.65
2019-03-27T04:22:27.564Z,5.28
2019-03-27T04:25:00.505Z,5.44
2019-03-27T04:27:33.221Z,5.89
2019-03-27T04:30:07.843Z,8.84
2019-03-27T04:32:40.428Z,8.65
2019-03-27T04:35:13.517Z,7.12
2019-03-27T04:37:46.085Z,5.96
2019-03-27T04:40:18.673Z,5.16
2019-03-27T04:42:51.351Z,5.65
2019-03-27T04:45:23.922Z,5.30
2019-03-27T04:47:57.007Z,5.47
2019-03-27T04:50:29.585Z,5.68
2019-03-27T04:53:03.703Z,5.19
2019-03-27T04:55:36.285Z,5.69
2019-03-27T04:58:08.850Z,5.27
2019-03-27T05:00:58.129Z,5.43
2019-03-27T05:04:04.487Z,5.72
2019-03-27T05:06:43.618Z,5.36
2019-03-27T05:09:16.217Z,5.40
2019-03-27T05:11:48.773Z,6.10
2019-03-27T05:14:21.352Z,9.04
2019-03-27T05:16:53.933Z,8.44
2019-03-27T05:19:26.512Z,6.97
2019-03-27T05:22:00.524Z,5.86
2019-03-27T05:24:33.499Z,5.16
2019-03-27T05:27:06.067Z,5.61
2019-03-27T05:29:38.661Z,5.36
2019-03-27T05:32:11.235Z,8.10
2019-03-27T05:34:44.939Z,8.48
2019-03-27T05:37:17.518Z,7.14
2019-03-27T05:39:50.090Z,6.13
2019-03-27T05:42:22.661Z,5.36
2019-03-27T05:44:55.249Z,6.18
2019-03-27T05:47:27.823Z,9.48
2019-03-27T05:50:00.801Z,9.48
2019-03-27T05:52:33.380Z,8.09
2019-03-27T05:55:07.295Z,7.01
2019-03-27T05:57:39.863Z,6.22
2019-03-27T06:00:14.181Z,5.68
2019-03-27T06:02:46.320Z,5.24
2019-03-27T06:05:18.929Z,7.18
2019-03-27T06:07:52.427Z,10.18
2019-03-27T06:10:25.008Z,9.24
2019-03-27T06:12:57.154Z,7.88
2019-03-27T06:15:29.747Z,7.00
2019-03-27T06:18:12.533Z,6.39
2019-03-27T06:20:37.251Z,5.89
2019-03-27T06:23:09.835Z,5.48
2019-03-27T06:25:42.407Z,5.97
2019-03-27T06:28:14.998Z,9.34
2019-03-27T06:30:47.555Z,9.53
2019-03-27T06:33:20.034Z,8.33
2019-03-27T06:35:52.608Z,7.45
2019-03-27T06:38:25.194Z,6.82
2019-03-27T06:40:58.247Z,6.37
2019-03-27T06:43:30.959Z,6.02
2019-03-27T06:46:03.531Z,8.09
2019-03-27T06:48:36.127Z,10.79
2019-03-27T06:51:08.685Z,9.90
2019-03-27T06:53:41.155Z,8.74
2019-03-27T06:56:13.835Z,7.94
2019-03-27T06:58:54.335Z,7.39
2019-03-27T07:01:20.627Z,6.98
2019-03-27T07:03:53.215Z,6.63
2019-03-27T07:06:27.008Z,6.38
2019-03-27T07:08:59.593Z,8.55
2019-03-27T07:11:32.167Z,11.84
2019-03-27T07:14:04.640Z,11.35
2019-03-27T07:16:38.156Z,10.05
2019-03-27T07:19:10.752Z,9.11
2019-03-27T07:21:44.316Z,8.50
2019-03-27T07:24:16.894Z,8.06
2019-03-27T07:26:49.433Z,7.71
2019-03-27T07:29:21.945Z,7.46
2019-03-27T07:31:54.531Z,7.25
2019-03-27T07:34:27.206Z,7.05
2019-03-27T07:36:59.779Z,7.60
2019-03-27T07:39:32.532Z,10.80
2019-03-27T07:42:05.143Z,10.40
2019-03-27T07:44:37.724Z,9.49
2019-03-27T07:47:09.938Z,8.85
2019-03-27T07:49:42.463Z,8.44
2019-03-27T07:52:15.544Z,8.10
2019-03-27T07:54:48.429Z,7.88
2019-03-27T07:57:21.005Z,7.68
2019-03-27T07:59:53.480Z,7.56
2019-03-27T08:02:26.056Z,7.42
2019-03-27T08:04:58.177Z,7.32
2019-03-27T08:07:30.366Z,7.32
2019-03-27T08:10:02.884Z,7.31
2019-03-27T08:12:35.859Z,7.32
2019-03-27T08:15:10.171Z,7.38
2019-03-27T08:17:42.853Z,7.35
2019-03-27T08:20:15.846Z,7.38
2019-03-27T08:22:48.406Z,7.38
2019-03-27T08:25:20.999Z,7.43
2019-03-27T08:27:53.569Z,7.47
2019-03-27T08:30:26.448Z,7.53
2019-03-27T08:32:59.030Z,7.56
2019-03-27T08:35:31.493Z,7.58
2019-03-27T08:38:03.683Z,7.63
2019-03-27T08:40:36.249Z,7.70
2019-03-27T08:43:20.578Z,7.73
2019-03-27T08:45:46.107Z,7.81
2019-03-27T08:48:18.687Z,7.87
2019-03-27T08:50:52.292Z,7.97
2019-03-27T08:53:25.493Z,8.05
2019-03-27T08:55:58.053Z,8.15
2019-03-27T08:58:30.247Z,8.25
2019-03-27T09:01:02.801Z,8.34
2019-03-27T09:03:35.373Z,8.48
2019-03-27T09:06:07.505Z,8.64
2019-03-27T09:08:40.315Z,8.74
2019-03-27T09:11:14.024Z,8.80
2019-03-27T09:13:46.604Z,8.91
2019-03-27T09:16:19.076Z,8.98
2019-03-27T09:18:51.658Z,9.07
2019-03-27T09:21:24.232Z,9.17
2019-03-27T09:23:56.855Z,9.21
2019-03-27T09:26:28.965Z,9.26
2019-03-27T09:29:01.561Z,9.30
2019-03-27T09:31:44.022Z,9.39
2019-03-27T09:34:08.653Z,9.46
2019-03-27T09:36:40.774Z,9.53
2019-03-27T09:39:13.470Z,9.63
2019-03-27T09:41:45.973Z,9.74
2019-03-27T09:44:18.545Z,9.83
2019-03-27T09:46:51.020Z,9.93
2019-03-27T09:49:23.598Z,10.00
2019-03-27T09:51:56.186Z,10.10
2019-03-27T09:54:29.157Z,10.18
2019-03-27T09:57:01.645Z,10.25
2019-03-27T09:59:34.215Z,10.35
2019-03-27T10:02:06.788Z,10.46
2019-03-27T10:04:40.184Z,10.53
2019-03-27T10:07:12.882Z,10.64
2019-03-27T10:09:45.545Z,10.77
2019-03-27T10:12:18.129Z,10.83
2019-03-27T10:14:50.698Z,10.91
2019-03-27T10:17:23.922Z,10.95
2019-03-27T10:20:03.256Z,10.98
2019-03-27T10:22:30.787Z,11.02
2019-03-27T10:25:03.364Z,11.04
2019-03-27T10:27:35.945Z,11.11
2019-03-27T10:30:09.699Z,11.21
2019-03-27T10:32:42.222Z,11.30
2019-03-27T10:35:15.206Z,11.39
2019-03-27T10:37:47.796Z,11.49
2019-03-27T10:40:20.354Z,11.63
2019-03-27T10:42:52.992Z,11.72
2019-03-27T10:45:25.712Z,11.89
2019-03-27T10:47:57.901Z,12.12
2019-03-27T10:50:30.662Z,12.29
2019-03-27T10:53:03.249Z,12.44
2019-03-27T10:55:37.554Z,12.45
2019-03-27T10:58:10.154Z,12.36
2019-03-27T11:00:42.842Z,12.26
2019-03-27T11:03:15.493Z,12.19
2019-03-27T11:05:48.078Z,12.10
2019-03-27T11:08:20.645Z,12.02
2019-03-27T11:10:52.836Z,11.96
2019-03-27T11:13:25.383Z,11.89
2019-03-27T11:15:58.270Z,11.91
2019-03-27T11:18:30.848Z,11.93
2019-03-27T11:21:03.493Z,11.99
2019-03-27T11:23:36.001Z,11.99
2019-03-27T11:26:08.591Z,12.02
2019-03-27T11:28:41.165Z,12.12
2019-03-27T11:31:13.739Z,12.29
2019-03-27T11:33:46.306Z,12.39
2019-03-27T11:36:19.915Z,12.41
2019-03-27T11:38:52.498Z,12.44
2019-03-27T11:41:25.076Z,12.44
2019-03-27T11:43:57.650Z,12.61
2019-03-27T11:46:32.280Z,12.71
2019-03-27T11:49:04.328Z,12.66
2019-03-27T11:51:36.912Z,12.61
2019-03-27T11:54:09.379Z,12.58
2019-03-27T11:56:42.678Z,12.62
2019-03-27T11:59:15.258Z,12.65
2019-03-27T12:01:47.837Z,12.59
2019-03-27T12:04:20.403Z,12.52
2019-03-27T12:06:52.985Z,12.39
2019-03-27T12:09:25.565Z,12.31
2019-03-27T12:11:58.243Z,12.24
2019-03-27T12:14:30.813Z,12.16
2019-03-27T12:17:03.389Z,12.02
2019-03-27T12:19:37.866Z,11.95
2019-03-27T12:22:09.884Z,11.81
2019-03-27T12:24:42.565Z,11.64
2019-03-27T12:27:15.186Z,11.50
2019-03-27T12:29:47.702Z,11.39
2019-03-27T12:32:20.135Z,11.27
2019-03-27T12:34:52.767Z,11.12
2019-03-27T12:37:25.343Z,11.04
2019-03-27T12:39:57.923Z,10.95
2019-03-27T12:42:30.122Z,10.87
2019-03-27T12:45:04.807Z,10.80
2019-03-27T12:47:37.393Z,10.71
2019-03-27T12:50:10.982Z,10.63
2019-03-27T12:52:43.569Z,10.56
2019-03-27T12:55:16.656Z,10.50
2019-03-27T12:57:50.039Z,10.42
2019-03-27T13:00:23.242Z,10.29
2019-03-27T13:02:55.807Z,10.25
2019-03-27T13:05:28.388Z,10.21
2019-03-27T13:08:00.974Z,10.18
2019-03-27T13:10:33.551Z,10.15
2019-03-27T13:13:09.087Z,10.18
2019-03-27T13:15:41.664Z,10.15
2019-03-27T13:18:14.247Z,10.12
2019-03-27T13:20:46.825Z,10.15
2019-03-27T13:23:19.403Z,10.14
2019-03-27T13:25:51.973Z,10.11
2019-03-27T13:28:24.555Z,10.03
2019-03-27T13:30:57.132Z,9.94
2019-03-27T13:33:29.706Z,9.89
2019-03-27T13:36:02.287Z,9.80
2019-03-27T13:38:34.951Z,9.77
2019-03-27T13:41:07.426Z,9.77
2019-03-27T13:43:40.014Z,9.74
2019-03-27T13:46:12.490Z,9.77
2019-03-27T13:48:45.552Z,9.82
2019-03-27T13:51:18.257Z,9.86
2019-03-27T13:53:50.832Z,9.89
2019-03-27T13:56:23.304Z,9.92
2019-03-27T13:58:56.600Z,9.94
2019-03-27T14:01:29.074Z,9.97
2019-03-27T14:04:01.663Z,9.98
2019-03-27T14:06:34.221Z,9.97
2019-03-27T14:09:09.464Z,10.01
2019-03-27T14:11:42.197Z,10.01
2019-03-27T14:14:14.834Z,10.05
2019-03-27T14:16:47.403Z,10.12
2019-03-27T14:19:19.976Z,10.17
2019-03-27T14:21:54.734Z,10.35
2019-03-27T14:24:26.671Z,10.49
2019-03-27T14:27:00.877Z,10.59
2019-03-27T14:29:33.463Z,10.69
2019-03-27T14:32:06.043Z,10.73
2019-03-27T14:34:38.607Z,10.77
2019-03-27T14:37:11.190Z,10.77
2019-03-27T14:39:43.774Z,10.74
2019-03-27T14:42:16.353Z,10.74
2019-03-27T14:44:50.165Z,10.69
2019-03-27T14:47:23.751Z,10.63
2019-03-27T14:49:56.322Z,10.57
2019-03-27T14:52:28.893Z,10.46
2019-03-27T14:55:03.123Z,10.38
2019-03-27T14:57:35.286Z,10.28
2019-03-27T15:00:12.061Z,10.18
2019-03-27T15:02:44.629Z,10.11
2019-03-27T15:05:17.223Z,10.00
2019-03-27T15:07:49.787Z,9.93
2019-03-27T15:10:23.394Z,9.86
2019-03-27T15:12:55.969Z,9.79
2019-03-27T15:15:28.546Z,9.69
2019-03-27T15:18:01.123Z,9.65
2019-03-27T15:20:33.695Z,12.07
2019-03-27T15:23:06.994Z,13.51
2019-03-27T15:25:39.558Z,12.52
2019-03-27T15:28:12.033Z,11.85
2019-03-27T15:30:44.614Z,11.39
2019-03-27T15:33:17.195Z,11.05
2019-03-27T15:35:49.774Z,10.84
2019-03-27T15:38:22.355Z,10.67
2019-03-27T15:40:54.933Z,10.53
2019-03-27T15:43:27.068Z,10.40
2019-03-27T15:45:59.674Z,10.27
2019-03-27T15:48:32.017Z,10.17
2019-03-27T15:51:04.620Z,10.11
2019-03-27T15:53:37.191Z,10.00
2019-03-27T15:56:09.772Z,9.93
2019-03-27T15:58:42.357Z,9.85
2019-03-27T16:01:16.566Z,10.35
2019-03-27T16:03:49.130Z,13.33
2019-03-27T16:06:21.710Z,12.93
2019-03-27T16:08:54.290Z,12.13
2019-03-27T16:11:26.925Z,11.60
2019-03-27T16:13:59.441Z,11.23
2019-03-27T16:16:32.235Z,10.95
2019-03-27T16:19:05.937Z,10.69
2019-03-27T16:21:38.502Z,10.53
2019-03-27T16:24:10.977Z,10.36
2019-03-27T16:26:43.514Z,10.24
2019-03-27T16:29:16.023Z,11.67
2019-03-27T16:31:48.616Z,13.94
2019-03-27T16:34:21.189Z,13.21
2019-03-27T16:36:54.274Z,12.45
2019-03-27T16:39:26.958Z,11.93
2019-03-27T16:41:59.537Z,11.54
2019-03-27T16:44:32.102Z,11.26
2019-03-27T16:47:04.693Z,10.97
2019-03-27T16:49:36.920Z,10.73
2019-03-27T16:52:09.538Z,10.52
2019-03-27T16:54:42.413Z,10.32
2019-03-27T16:57:14.991Z,11.81
2019-03-27T16:59:47.573Z,13.93
2019-03-27T17:02:21.061Z,13.14
2019-03-27T17:04:53.642Z,12.34
2019-03-27T17:07:26.223Z,11.75
2019-03-27T17:09:58.892Z,11.38
2019-03-27T17:12:31.683Z,11.02
2019-03-27T17:15:04.982Z,10.76
2019-03-27T17:17:37.552Z,10.53
2019-03-27T17:20:13.909Z,10.31
2019-03-27T17:22:46.495Z,11.04
2019-03-27T17:25:19.046Z,13.94
2019-03-27T17:27:51.621Z,13.53
2019-03-27T17:30:24.199Z,12.65
2019-03-27T17:32:56.876Z,12.00
2019-03-27T17:35:29.352Z,11.47
2019-03-27T17:38:01.929Z,11.12
2019-03-27T17:40:34.411Z,10.83
2019-03-27T17:43:06.979Z,10.60
2019-03-27T17:45:40.686Z,10.36
2019-03-27T17:48:13.260Z,12.07
2019-03-27T17:50:45.839Z,14.69
2019-03-27T17:53:31.051Z,13.73
2019-03-27T17:55:52.527Z,12.68
2019-03-27T17:58:25.101Z,11.98
2019-03-27T18:00:58.600Z,11.54
2019-03-27T18:03:31.387Z,11.18
2019-03-27T18:06:03.972Z,10.88
2019-03-27T18:08:36.536Z,10.87
2019-03-27T18:11:09.111Z,13.52
2019-03-27T18:13:42.202Z,13.46
2019-03-27T18:16:17.161Z,12.54
2019-03-27T18:18:48.987Z,11.91
2019-03-27T18:21:21.414Z,11.38
2019-03-27T18:23:54.202Z,11.06
2019-03-27T18:26:26.723Z,13.39
2019-03-27T18:28:59.298Z,14.05
2019-03-27T18:31:31.878Z,13.04
2019-03-27T18:34:04.453Z,12.27
2019-03-27T18:36:37.030Z,11.72
2019-03-27T18:39:10.629Z,11.29
2019-03-27T18:41:43.221Z,10.94
2019-03-27T18:44:15.784Z,10.92
2019-03-27T18:46:48.258Z,13.66
2019-03-27T18:49:20.834Z,13.94
2019-03-27T18:51:53.411Z,12.90
2019-03-27T18:54:26.090Z,12.15
2019-03-27T18:56:58.670Z,11.58
2019-03-27T18:59:31.516Z,11.15
2019-03-27T19:02:04.235Z,11.19
2019-03-27T19:04:36.808Z,14.02
2019-03-27T19:07:09.281Z,14.46
2019-03-27T19:09:41.863Z,13.27
2019-03-27T19:12:14.433Z,12.40
2019-03-27T19:14:47.011Z,11.84
2019-03-27T19:17:19.136Z,11.42
2019-03-27T19:19:51.651Z,11.63
2019-03-27T19:22:24.228Z,14.56
2019-03-27T19:24:56.806Z,14.28
2019-03-27T19:27:29.438Z,13.14
2019-03-27T19:30:02.066Z,12.33
2019-03-27T19:32:34.739Z,11.75
2019-03-27T19:35:08.035Z,12.51
2019-03-27T19:37:40.168Z,15.35
2019-03-27T19:40:13.698Z,14.74
2019-03-27T19:42:46.577Z,13.43
2019-03-27T19:45:19.167Z,12.59
2019-03-27T19:47:51.291Z,11.96
2019-03-27T19:50:23.906Z,11.85
2019-03-27T19:52:56.582Z,14.40
2019-03-27T19:55:28.884Z,14.11
2019-03-27T19:58:01.530Z,13.00
2019-03-27T20:00:34.217Z,12.23
2019-03-27T20:03:06.741Z,13.86
2019-03-27T20:05:39.427Z,14.94
2019-03-27T20:08:11.939Z,13.83
2019-03-27T20:10:44.515Z,12.82
2019-03-27T20:13:17.088Z,12.13
2019-03-27T20:15:49.669Z,12.89
2019-03-27T20:18:23.781Z,15.35
2019-03-27T20:20:56.197Z,14.51
2019-03-27T20:23:28.733Z,13.34
2019-03-27T20:26:01.507Z,12.44
2019-03-27T20:28:33.981Z,12.31
2019-03-27T20:31:06.565Z,15.06
2019-03-27T20:33:39.196Z,14.94
2019-03-27T20:36:13.105Z,13.68
2019-03-27T20:38:46.137Z,12.82
2019-03-27T20:41:18.308Z,12.09
2019-03-27T20:43:50.886Z,13.96
2019-03-27T20:46:25.528Z,16.06
2019-03-27T20:48:57.571Z,14.84
2019-03-27T20:51:30.290Z,13.68
2019-03-27T20:54:02.829Z,12.84
2019-03-27T20:56:35.400Z,12.27
2019-03-27T20:59:07.881Z,14.63
2019-03-27T21:01:40.456Z,15.29
2019-03-27T21:04:13.067Z,14.02
2019-03-27T21:06:45.608Z,13.04
2019-03-27T21:09:18.329Z,12.36
2019-03-27T21:11:50.964Z,13.70
2019-03-27T21:14:23.100Z,16.58
2019-03-27T21:16:55.965Z,15.74
2019-03-27T21:19:28.387Z,14.31
2019-03-27T21:22:00.966Z,13.34
2019-03-27T21:24:33.535Z,12.68
2019-03-27T21:27:06.126Z,12.43
2019-03-27T21:29:38.591Z,15.05
2019-03-27T21:32:11.162Z,15.42
2019-03-27T21:34:52.737Z,14.17
2019-03-27T21:37:29.326Z,13.06
2019-03-27T21:40:02.281Z,12.82
2019-03-27T21:42:38.896Z,15.57
2019-03-27T21:45:13.876Z,15.44
2019-03-27T21:47:47.959Z,14.10
2019-03-27T21:50:22.629Z,13.18
2019-03-27T21:53:01.145Z,12.51
2019-03-27T21:55:42.594Z,14.95
2019-03-27T21:58:11.634Z,16.44
2019-03-27T22:00:45.951Z,14.95
2019-03-27T22:03:29.916Z,13.84
2019-03-27T22:06:20.422Z,12.95
2019-03-27T22:09:08.962Z,13.37
2019-03-27T22:11:57.640Z,16.34
2019-03-27T22:14:42.448Z,15.32
2019-03-27T22:17:19.790Z,14.04
2019-03-27T22:19:53.516Z,13.20
2019-03-27T22:22:27.943Z,12.58
2019-03-27T22:25:01.085Z,14.85
2019-03-27T22:27:34.426Z,15.89
2019-03-27T22:30:09.496Z,14.63
2019-03-27T22:32:43.532Z,13.58
2019-03-27T22:35:16.392Z,12.83
2019-03-27T22:37:51.092Z,14.19
2019-03-27T22:40:24.682Z,16.65
2019-03-27T22:42:58.084Z,15.63
2019-03-27T22:45:35.264Z,14.27
2019-03-27T22:48:08.135Z,13.28
2019-03-27T22:50:40.661Z,12.99
2019-03-27T22:53:13.234Z,15.60
2019-03-27T22:55:50.142Z,15.63
2019-03-27T22:58:19.926Z,14.32
2019-03-27T23:00:55.063Z,13.28
2019-03-27T23:03:27.646Z,12.57
2019-03-27T23:06:00.213Z,14.05
2019-03-27T23:08:32.790Z,16.38
2019-03-27T23:11:06.391Z,15.26
2019-03-27T23:13:38.965Z,13.98
2019-03-27T23:16:11.541Z,13.11
2019-03-27T23:18:43.668Z,14.11
2019-03-27T23:21:16.190Z,15.65
2019-03-27T23:23:48.765Z,14.51
2019-03-27T23:26:21.343Z,13.52
2019-03-27T23:28:53.818Z,12.75
2019-03-27T23:31:26.434Z,14.48
2019-03-27T23:34:00.474Z,16.61
2019-03-27T23:36:32.670Z,15.54
2019-03-27T23:39:07.807Z,14.24
2019-03-27T23:41:40.381Z,13.31
2019-03-27T23:44:12.502Z,13.25
2019-03-27T23:46:44.789Z,16.00
2019-03-27T23:49:17.295Z,16.11
2019-03-27T23:51:49.871Z,14.71
2019-03-27T23:54:22.550Z,13.68
2019-03-27T23:56:55.126Z,12.98
2019-03-27T23:59:27.703Z,14.15
